Time;durP1;ratioP1;P1;durP2;ratioP2;P2;SDS_P1;SDS_P2;PMS_P1;PMS_P2;Temp;Humidity;BMP_temperature;BMP_pressure;BME280_temperature;BME280_humidity;BME280_pressure;Samples;Min_cycle;Max_cycle;Signal;HPM_P1;HPM_P2
2020/12/03 00:00:24;;;;;;;28.00;17.02;;;;;;;6.38;74.92;99104.28;5014177;28;20050;-92
2020/12/03 00:02:51;;;;;;;32.45;18.70;;;;;;;6.38;75.23;99106.88;5011929;28;20531;-92
2020/12/03 00:05:17;;;;;;;29.98;17.75;;;;;;;6.38;75.65;99100.81;5012827;28;20054;-92
2020/12/03 00:07:43;;;;;;;30.60;18.20;;;;;;;6.37;75.75;99105.22;5012854;28;20053;-92
2020/12/03 00:10:09;;;;;;;26.63;18.13;;;;;;;6.37;75.92;99107.81;5013132;28;20112;-92
2020/12/03 00:12:35;;;;;;;26.42;17.08;;;;;;;6.38;75.85;99099.03;5012968;28;20056;-92
2020/12/03 00:15:02;;;;;;;30.67;17.95;;;;;;;6.38;75.98;99091.19;5012709;28;20498;-92
2020/12/03 00:17:29;;;;;;;25.25;16.45;;;;;;;6.37;75.62;99081.69;5013816;28;20601;-94
2020/12/03 00:19:55;;;;;;;30.20;18.17;;;;;;;6.38;75.78;99083.38;5014106;28;20053;-92
2020/12/03 00:22:21;;;;;;;33.13;18.52;;;;;;;6.39;75.46;99085.03;5013174;28;20057;-93
2020/12/03 00:24:47;;;;;;;27.83;18.25;;;;;;;6.36;75.87;99085.19;5012906;28;20458;-92
2020/12/03 00:27:13;;;;;;;26.08;17.38;;;;;;;6.36;75.50;99082.56;5013324;28;20069;-92
2020/12/03 00:29:40;;;;;;;29.95;18.05;;;;;;;6.34;75.37;99079.22;5014212;28;20053;-92
2020/12/03 00:40:04;;;;;;;25.90;17.48;;;;;;;6.30;76.03;99055.91;5010969;28;20427;-90
2020/12/03 00:42:30;;;;;;;29.50;18.65;;;;;;;6.30;75.83;99053.28;5012461;28;20058;-89
2020/12/03 00:44:56;;;;;;;27.30;17.92;;;;;;;6.30;76.17;99058.50;5012091;28;20045;-89
2020/12/03 00:47:22;;;;;;;32.33;18.05;;;;;;;6.30;76.08;99048.91;5012506;28;20053;-89
2020/12/03 00:49:49;;;;;;;28.38;17.30;;;;;;;6.31;76.23;99047.16;5013379;28;20576;-90
2020/12/03 00:52:15;;;;;;;31.38;18.17;;;;;;;6.32;75.92;99049.66;5012356;28;20069;-90
2020/12/03 00:54:42;;;;;;;28.70;18.20;;;;;;;6.31;76.16;99039.31;5012358;28;20057;-90
2020/12/03 00:57:10;;;;;;;31.40;20.30;;;;;;;6.33;75.76;99029.63;5012234;28;20466;-89
2020/12/03 00:59:40;;;;;;;32.97;20.40;;;;;;;6.30;75.43;99035.84;5012237;28;20070;-90
2020/12/03 01:02:10;;;;;;;32.00;19.25;;;;;;;6.30;75.40;99035.00;5012604;28;20060;-89
2020/12/03 01:04:37;;;;;;;30.15;20.15;;;;;;;6.27;75.62;99025.53;5013698;28;20064;-90
2020/12/03 01:07:05;;;;;;;33.28;20.75;;;;;;;6.24;75.81;99023.06;5012337;28;20136;-90
2020/12/03 01:09:31;;;;;;;31.25;19.52;;;;;;;6.24;75.64;99017.84;5012070;28;20045;-90
2020/12/03 01:11:58;;;;;;;32.33;20.45;;;;;;;6.21;75.79;99024.09;5012318;28;20062;-90
2020/12/03 01:14:34;;;;;;;30.30;20.30;;;;;;;6.16;75.45;99020.88;5013886;28;20050;-91
2020/12/03 01:17:08;;;;;;;32.80;21.25;;;;;;;6.16;75.57;99020.03;5016745;28;20064;-90
2020/12/03 01:19:34;;;;;;;33.65;21.23;;;;;;;6.15;75.75;99010.47;5017394;28;20068;-91
2020/12/03 01:22:04;;;;;;;32.28;19.40;;;;;;;6.11;75.49;99009.81;5016103;28;20064;-90
2020/12/03 01:24:30;;;;;;;32.13;19.98;;;;;;;6.10;75.68;98997.66;5015376;28;20121;-90
2020/12/03 01:26:57;;;;;;;34.40;20.25;;;;;;;6.08;76.28;98995.13;5015888;28;20072;-91
2020/12/03 01:29:23;;;;;;;35.38;23.60;;;;;;;6.06;76.28;98994.34;5016657;28;20053;-90
2020/12/03 01:31:51;;;;;;;33.75;19.85;;;;;;;6.07;76.24;98982.13;5016546;28;20061;-90
2020/12/03 01:34:19;;;;;;;30.80;19.30;;;;;;;6.06;76.19;98983.06;5015320;28;20046;-89
2020/12/03 01:36:49;;;;;;;32.13;20.88;;;;;;;6.04;76.00;98985.75;5016079;28;20053;-90
2020/12/03 01:39:16;;;;;;;34.33;21.35;;;;;;;6.05;76.40;98984.00;5015422;28;20066;-90
2020/12/03 01:41:42;;;;;;;36.47;22.35;;;;;;;6.04;76.50;98983.16;5015613;28;20514;-90
2020/12/03 01:44:12;;;;;;;33.22;20.83;;;;;;;6.04;75.86;98987.50;5014991;28;20053;-90
2020/12/03 01:46:42;;;;;;;37.55;22.35;;;;;;;6.04;76.68;98990.97;5016442;28;20450;-90
2020/12/03 01:49:16;;;;;;;38.47;22.45;;;;;;;6.04;76.01;98990.13;5015298;28;20486;-90
2020/12/03 01:51:53;;;;;;;35.25;22.45;;;;;;;6.04;76.28;98983.16;5015450;28;20058;-89
2020/12/03 01:54:21;;;;;;;35.15;21.60;;;;;;;6.04;76.39;98975.31;5015203;28;20053;-90
2020/12/03 01:57:19;;;;;;;33.60;22.02;;;;;;;6.03;76.21;98971.00;5016342;28;20065;-90
2020/12/03 01:59:58;;;;;;;33.60;20.40;;;;;;;6.00;75.58;98965.91;5015158;28;20108;-91
2020/12/03 02:02:25;;;;;;;38.60;22.17;;;;;;;6.04;76.27;98956.16;5016068;28;20053;-91
2020/12/03 02:05:09;;;;;;;34.63;21.30;;;;;;;6.02;76.06;98956.19;5015403;28;20403;-90
2020/12/03 02:07:35;;;;;;;38.85;24.00;;;;;;;6.02;76.17;98956.19;5015406;28;20133;-90
2020/12/03 02:10:03;;;;;;;36.53;22.48;;;;;;;6.01;76.18;98944.06;5014983;28;20046;-89
2020/12/03 02:12:29;;;;;;;33.17;21.48;;;;;;;6.00;76.19;98948.47;5014564;28;20058;-90
2020/12/03 02:14:55;;;;;;;33.03;21.38;;;;;;;5.99;76.36;98935.47;5014570;28;20490;-89
2020/12/03 02:17:25;;;;;;;33.42;20.83;;;;;;;5.99;76.48;98936.31;5014388;28;20084;-90
2020/12/03 02:20:04;;;;;;;33.10;22.35;;;;;;;5.97;75.97;98922.50;5014798;28;20475;-91
2020/12/03 02:22:30;;;;;;;35.63;20.63;;;;;;;6.00;76.27;98908.44;5014582;28;20046;-89
2020/12/03 02:24:56;;;;;;;34.00;21.65;;;;;;;6.00;76.63;98905.81;5014327;28;20140;-89
2020/12/03 02:27:24;;;;;;;33.83;21.08;;;;;;;5.99;76.68;98894.50;5013507;28;20068;-90
2020/12/03 02:29:51;;;;;;;35.83;21.73;;;;;;;6.01;76.40;98883.97;5014725;28;20137;-88
2020/12/03 02:32:22;;;;;;;31.23;20.10;;;;;;;6.01;76.42;98878.75;5014203;28;20049;-89
2020/12/03 02:34:51;;;;;;;31.65;20.50;;;;;;;6.00;76.23;98884.91;5014548;28;20058;-90
2020/12/03 02:37:20;;;;;;;37.53;21.23;;;;;;;5.99;75.73;98881.44;5014724;28;20133;-91
2020/12/03 02:39:47;;;;;;;34.42;21.60;;;;;;;5.98;75.52;98884.16;5014559;28;20104;-89
2020/12/03 02:42:20;;;;;;;37.85;21.80;;;;;;;5.93;75.54;98866.09;5014837;28;20053;-91
2020/12/03 02:44:50;;;;;;;32.33;21.27;;;;;;;5.93;75.85;98873.09;5014322;28;20046;-90
2020/12/03 02:47:22;;;;;;;34.58;21.65;;;;;;;5.87;75.72;98863.84;5015013;28;20054;-89
2020/12/03 02:49:50;;;;;;;30.05;20.25;;;;;;;5.83;75.56;98855.28;5014969;28;20057;-89
2020/12/03 02:52:21;;;;;;;34.13;20.40;;;;;;;5.80;75.70;98855.44;5014485;28;20498;-89
2020/12/03 02:54:56;;;;;;;34.90;19.70;;;;;;;5.79;75.84;98858.16;5014174;28;20053;-89
2020/12/03 02:57:23;;;;;;;31.20;19.83;;;;;;;5.76;75.94;98853.94;5014061;28;20057;-90
2020/12/03 03:00:01;;;;;;;38.10;23.13;;;;;;;5.69;75.35;98847.34;5014311;28;20050;-91
2020/12/03 03:02:44;;;;;;;39.63;22.33;;;;;;;5.70;76.26;98843.78;4993865;28;20060;-90
2020/12/03 03:05:14;;;;;;;40.72;21.65;;;;;;;5.67;76.09;98857.00;5014525;28;20402;-88
2020/12/03 03:07:45;;;;;;;38.90;21.67;;;;;;;5.66;76.18;98842.25;5014873;28;20058;-90
2020/12/03 03:10:14;;;;;;;36.03;22.33;;;;;;;5.62;76.04;98844.19;5014238;28;20108;-90
2020/12/03 03:12:41;;;;;;;46.35;23.25;;;;;;;5.60;76.20;98838.19;5013945;28;20057;-89
2020/12/03 03:15:07;;;;;;;44.58;22.10;;;;;;;5.60;76.38;98831.22;5014063;28;20479;-90
2020/12/03 03:17:34;;;;;;;42.33;23.35;;;;;;;5.58;76.53;98830.44;5014622;28;20062;-89
2020/12/03 03:20:00;;;;;;;39.22;22.83;;;;;;;5.57;76.42;98822.72;5014122;28;20057;-90
2020/12/03 03:22:38;;;;;;;43.03;24.15;;;;;;;5.53;76.10;98831.63;5014528;28;20050;-89
2020/12/03 03:25:37;;;;;;;56.17;22.13;;;;;;;5.51;76.06;98816.03;4941536;29;20047;-90
2020/12/03 03:28:03;;;;;;;40.80;23.13;;;;;;;5.54;76.43;98812.41;5014097;28;20483;-90
2020/12/03 03:30:36;;;;;;;;;;;;;;;5.52;75.69;98816.84;5014557;28;20111;-89
2020/12/03 03:33:04;;;;;;;44.20;21.42;;;;;;;5.54;76.51;98805.44;5013946;28;19921;-90
2020/12/03 03:35:36;;;;;;;51.67;23.17;;;;;;;5.51;76.46;98805.59;5015291;28;20053;-90
2020/12/03 03:38:26;;;;;;;51.35;24.17;;;;;;;5.47;76.14;98801.44;5013561;28;20061;-90
2020/12/03 03:41:01;;;;;;;42.58;22.45;;;;;;;5.49;76.78;98799.59;4998202;28;20560;-91
2020/12/03 03:43:28;;;;;;;53.70;23.85;;;;;;;5.48;76.90;98798.75;5013289;28;20128;-90
2020/12/03 03:45:57;;;;;;;38.10;21.58;;;;;;;5.48;76.76;98797.91;5013284;28;20049;-91
2020/12/03 03:48:24;;;;;;;53.13;24.27;;;;;;;5.51;77.01;98794.28;5012866;28;20049;-90
2020/12/03 03:50:53;;;;;;;52.15;23.65;;;;;;;5.54;76.85;98789.78;5012641;28;20487;-89
2020/12/03 03:53:19;;;;;;;50.05;24.50;;;;;;;5.55;77.06;98793.22;5012909;28;20537;-91
2020/12/03 03:55:46;;;;;;;42.60;23.98;;;;;;;5.57;77.12;98787.00;5013206;28;20050;-90
2020/12/03 03:58:12;;;;;;;41.78;21.75;;;;;;;5.59;76.84;98774.72;5013232;28;20053;-91
2020/12/03 04:00:41;;;;;;;41.47;22.33;;;;;;;5.62;77.10;98773.72;5011907;28;20057;-91
2020/12/03 04:03:12;;;;;;;45.00;24.92;;;;;;;5.67;77.09;98770.84;5012119;28;20140;-90
2020/12/03 04:05:43;;;;;;;44.25;24.17;;;;;;;5.68;76.83;98764.72;5013172;28;20089;-89
2020/12/03 04:08:19;;;;;;;50.58;25.38;;;;;;;5.71;76.52;98759.31;5013341;28;20050;-91
2020/12/03 04:10:49;;;;;;;50.97;24.27;;;;;;;5.75;76.75;98763.44;5013961;28;20100;-90
2020/12/03 04:13:16;;;;;;;45.63;25.88;;;;;;;5.76;76.83;98757.31;5013259;28;20132;-91
2020/12/03 04:15:42;;;;;;;45.20;25.05;;;;;;;5.77;76.37;98756.38;5013897;28;20054;-91
2020/12/03 04:18:09;;;;;;;46.85;25.20;;;;;;;5.77;76.71;98748.56;5013026;28;20065;-90
2020/12/03 04:20:35;;;;;;;36.30;21.63;;;;;;;5.79;76.93;98732.81;5013051;28;20058;-90
2020/12/03 04:23:02;;;;;;;43.78;24.77;;;;;;;5.82;76.91;98728.25;5012841;28;20049;-90
2020/12/03 04:25:28;;;;;;;43.70;23.95;;;;;;;5.85;77.11;98722.00;5012913;28;20129;-90
2020/12/03 04:27:56;;;;;;;47.45;25.85;;;;;;;5.89;77.00;98715.69;5012897;28;20066;-91
2020/12/03 04:30:22;;;;;;;47.70;25.23;;;;;;;5.91;76.80;98718.22;5013573;28;20058;-89
2020/12/03 04:32:48;;;;;;;48.95;26.30;;;;;;;5.94;76.51;98723.31;5013050;28;20049;-91
2020/12/03 04:35:17;;;;;;;47.88;25.85;;;;;;;5.93;75.94;98721.59;5012920;28;20042;-90
2020/12/03 04:37:49;;;;;;;49.58;27.08;;;;;;;5.90;75.64;98714.75;5013447;28;20077;-90
2020/12/03 04:40:27;;;;;;;48.03;24.95;;;;;;;5.87;75.42;98707.94;5013846;28;20418;-90
2020/12/03 04:42:53;;;;;;;50.13;26.58;;;;;;;5.87;75.63;98712.34;5013767;28;20550;-90
2020/12/03 04:45:46;;;;;;;46.35;24.95;;;;;;;5.80;75.25;98701.34;5012432;28;20058;-87
2020/12/03 04:48:31;;;;;;;44.63;24.63;;;;;;;5.79;75.30;98688.41;5013209;28;20053;-91
2020/12/03 04:51:15;;;;;;;42.50;23.33;;;;;;;5.76;75.49;98683.34;5017796;28;20060;-90
2020/12/03 04:53:52;;;;;;;51.20;27.40;;;;;;;5.74;75.57;98684.28;5017041;28;20046;-90
2020/12/03 04:56:43;;;;;;;49.20;28.02;;;;;;;5.67;74.31;98682.06;5016893;28;20050;-90
2020/12/03 04:59:32;;;;;;;50.03;26.70;;;;;;;5.63;75.00;98672.72;5016304;28;20116;-90
2020/12/03 05:02:35;;;;;;;47.38;26.38;;;;;;;5.57;74.83;98679.97;5016576;28;20054;-87
2020/12/03 05:05:27;;;;;;;48.17;26.77;;;;;;;5.53;74.89;98678.44;5016464;28;20054;-88
2020/12/03 05:08:02;;;;;;;48.78;27.63;;;;;;;5.49;75.58;98669.09;5015684;28;20045;-89
2020/12/03 05:10:40;;;;;;;50.83;26.75;;;;;;;5.45;75.69;98676.25;5015709;28;20050;-87
2020/12/03 05:13:18;;;;;;;44.75;25.38;;;;;;;5.45;75.90;98678.84;5015412;28;20056;-88
2020/12/03 05:15:49;;;;;;;47.63;26.38;;;;;;;5.46;75.99;98669.28;5015811;28;20053;-85
2020/12/03 05:18:35;;;;;;;50.83;27.75;;;;;;;5.41;75.83;98666.03;5015847;28;20522;-87
2020/12/03 05:21:03;;;;;;;48.90;27.00;;;;;;;5.45;76.45;98672.78;5015765;28;20046;-87
2020/12/03 05:23:34;;;;;;;44.00;25.42;;;;;;;5.42;76.18;98665.13;5015894;28;20064;-87
2020/12/03 05:26:11;;;;;;;43.72;25.05;;;;;;;5.42;76.65;98665.13;5015444;28;20073;-87
2020/12/03 05:29:00;;;;;;;43.20;24.63;;;;;;;5.41;76.10;98669.50;5015554;28;20076;-87
2020/12/03 05:31:29;;;;;;;45.47;25.45;;;;;;;5.46;76.79;98658.81;5015359;28;20061;-88
2020/12/03 05:34:06;;;;;;;49.65;25.52;;;;;;;5.45;76.37;98657.97;5015768;28;20042;-88
2020/12/03 05:36:37;;;;;;;45.50;26.15;;;;;;;5.47;76.56;98650.88;5016399;28;20139;-87
2020/12/03 05:39:09;;;;;;;41.25;23.52;;;;;;;5.47;76.32;98650.88;5015485;28;20501;-88
2020/12/03 05:41:45;;;;;;;42.42;24.88;;;;;;;5.47;76.60;98644.84;5015743;28;20509;-87
2020/12/03 05:44:36;;;;;;;38.83;22.27;;;;;;;5.48;76.57;98663.03;5015224;28;20045;-88
2020/12/03 05:47:20;;;;;;;44.28;24.85;;;;;;;5.50;76.33;98646.44;5014915;28;20068;-88
2020/12/03 05:49:49;;;;;;;39.53;22.88;;;;;;;5.53;76.64;98652.34;5015919;28;20064;-88
2020/12/03 05:52:19;;;;;;;40.80;24.85;;;;;;;5.51;76.04;98651.59;5015741;28;20053;-87
2020/12/03 05:55:03;;;;;;;42.97;25.20;;;;;;;5.51;75.92;98648.13;5015886;28;20058;-88
2020/12/03 05:57:41;;;;;;;40.00;22.75;;;;;;;5.52;76.16;98645.44;5014926;28;20060;-88
2020/12/03 06:00:13;;;;;;;43.63;23.55;;;;;;;5.54;76.21;98634.91;5015134;28;20388;-88
2020/12/03 06:02:49;;;;;;;41.42;23.63;;;;;;;5.55;75.94;98627.00;5014215;28;20064;-88
2020/12/03 06:05:18;;;;;;;34.50;20.50;;;;;;;5.58;76.79;98633.81;5014714;28;20053;-89
2020/12/03 06:08:16;;;;;;;37.17;21.08;;;;;;;5.58;76.32;98632.03;5015732;28;20046;-88
2020/12/03 06:10:51;;;;;;;39.08;21.77;;;;;;;5.65;76.92;98623.88;5014341;28;20050;-88
2020/12/03 06:13:34;;;;;;;40.17;22.42;;;;;;;5.65;76.31;98611.69;5014756;28;20056;-88
2020/12/03 06:16:16;;;;;;;38.63;21.77;;;;;;;5.71;76.83;98610.47;5014802;28;20054;-88
2020/12/03 06:18:54;;;;;;;39.88;21.00;;;;;;;5.72;76.36;98607.78;5014584;28;20050;-88
2020/12/03 06:21:54;;;;;;;37.83;21.70;;;;;;;5.74;76.02;98592.03;5014383;28;20063;-88
2020/12/03 06:24:29;;;;;;;40.25;20.80;;;;;;;5.78;76.70;98592.69;5014190;28;20050;-87
2020/12/03 06:27:16;;;;;;;38.15;22.55;;;;;;;5.78;76.34;98588.31;5015530;28;20057;-88
2020/12/03 06:30:01;;;;;;;42.22;22.60;;;;;;;5.80;76.03;98589.06;5014377;28;20056;-88
2020/12/03 06:32:48;;;;;;;39.05;22.45;;;;;;;5.82;75.95;98586.38;5014326;28;20479;-88
2020/12/03 06:35:31;;;;;;;35.55;19.92;;;;;;;5.83;75.95;98586.28;5014180;28;20053;-89
2020/12/03 09:09:30;;;;;;;18.63;11.48;;;;;;;6.08;76.01;98440.41;4790403;29;20071;-90
2020/12/03 09:11:56;;;;;;;17.40;10.38;;;;;;;6.08;76.09;98443.88;4775828;29;20059;-90
2020/12/03 09:46:45;;;;;;;20.10;11.40;;;;;;;6.16;75.74;98375.47;5185541;23;20119;-91
2020/12/03 09:49:12;;;;;;;13.15;9.18;;;;;;;6.17;76.51;98363.25;4829080;29;20081;-90
2020/12/03 09:51:38;;;;;;;14.50;9.65;;;;;;;6.18;76.55;98357.09;4828741;29;20049;-90
2020/12/03 11:25:38;;;;;;;14.68;9.43;;;;;;;6.35;76.61;98209.66;4841875;29;20571;-88
2020/12/03 11:28:28;;;;;;;15.35;10.07;;;;;;;6.34;75.47;98198.41;4842298;29;20062;-90
2020/12/03 13:34:51;;;;;;;12.30;8.48;;;;;;;7.16;75.50;97940.94;4844302;29;20081;-90
2020/12/03 13:37:17;;;;;;;12.15;8.63;;;;;;;7.17;75.53;97937.38;4844069;29;20054;-90
2020/12/03 13:39:46;;;;;;;11.57;8.55;;;;;;;7.20;75.17;97928.47;4845312;29;20564;-90
2020/12/03 17:21:38;;;;;;;13.07;10.15;;;;;;;6.97;72.62;97601.38;4845393;29;20054;-88
2020/12/03 17:24:10;;;;;;;15.48;10.00;;;;;;;6.98;73.96;97600.44;4842046;29;20058;-89
2020/12/03 17:26:45;;;;;;;13.88;9.77;;;;;;;6.97;73.85;97605.78;4889753;23;20052;-91
2020/12/03 17:29:12;;;;;;;16.67;9.95;;;;;;;6.97;74.01;97600.53;4864199;29;20053;-90
2020/12/03 17:31:58;;;;;;;13.75;9.80;;;;;;;6.91;72.89;97584.38;4862922;29;20449;-90
2020/12/03 17:34:27;;;;;;;19.20;9.85;;;;;;;6.94;74.10;97587.69;4863398;29;20080;-92
2020/12/03 17:37:22;;;;;;;15.48;9.90;;;;;;;6.94;74.41;97579.84;4853138;29;20081;-92
2020/12/03 17:40:45;;;;;;;16.15;9.90;;;;;;;6.92;72.90;97587.84;4862745;29;20056;-91
2020/12/03 17:43:22;;;;;;;14.40;10.43;;;;;;;6.95;74.45;97571.88;4860307;29;20121;-91
2020/12/03 17:45:50;;;;;;;14.80;10.60;;;;;;;6.94;74.19;97572.00;4862155;29;20064;-91
2020/12/03 17:48:17;;;;;;;14.90;9.90;;;;;;;6.94;74.43;97565.00;4862463;29;20093;-91
2020/12/03 17:50:46;;;;;;;16.73;10.80;;;;;;;6.93;74.29;97560.72;4862493;29;20124;-92
2020/12/03 17:53:53;;;;;;;16.85;11.57;;;;;;;6.90;73.41;97560.94;4862154;29;20528;-92
2020/12/03 17:58:17;;;;;;;15.07;10.30;;;;;;;6.91;72.71;97560.84;4860242;29;20057;-91
2020/12/03 18:01:04;;;;;;;14.75;9.80;;;;;;;6.95;73.50;97555.38;4802099;29;20222;-91
2020/12/03 18:04:04;;;;;;;15.43;10.57;;;;;;;6.96;73.94;97549.19;4808713;29;20133;-91
2020/12/03 18:06:39;;;;;;;15.52;11.18;;;;;;;6.91;73.05;97542.53;4861969;29;20046;-90
2020/12/03 18:09:16;;;;;;;16.60;11.70;;;;;;;6.90;73.85;97543.50;4862473;29;20054;-89
2020/12/03 18:12:08;;;;;;;16.58;11.65;;;;;;;6.85;72.18;97540.41;4862046;29;20434;-91
2020/12/03 18:14:45;;;;;;;15.00;11.32;;;;;;;6.87;73.75;97532.41;4862109;29;20140;-91
2020/12/03 18:17:22;;;;;;;17.40;11.65;;;;;;;6.87;73.78;97535.03;4862426;29;20061;-91
2020/12/03 18:19:49;;;;;;;14.52;10.65;;;;;;;6.85;74.02;97527.34;4862203;29;20064;-91
2020/12/03 18:22:15;;;;;;;16.48;10.93;;;;;;;6.83;73.87;97525.75;4862264;29;20053;-90
2020/12/03 18:24:42;;;;;;;14.90;11.20;;;;;;;6.83;73.93;97517.91;4862150;29;20140;-90
2020/12/03 18:27:25;;;;;;;15.18;10.32;;;;;;;6.83;73.77;97508.28;4855711;29;20062;-91
2020/12/03 18:29:51;;;;;;;17.10;10.90;;;;;;;6.84;74.01;97512.56;4862971;29;20056;-91
2020/12/03 18:32:18;;;;;;;16.85;11.43;;;;;;;6.84;73.86;97496.88;4861993;29;20100;-91
2020/12/03 18:34:45;;;;;;;16.38;10.77;;;;;;;6.84;74.11;97486.41;4862456;29;20061;-92
2020/12/03 18:37:12;;;;;;;14.18;9.95;;;;;;;6.84;74.12;97488.22;4862698;29;20135;-91
2020/12/03 18:39:40;;;;;;;15.68;11.35;;;;;;;6.85;73.57;97489.88;4862722;29;20050;-91
2020/12/03 18:42:12;;;;;;;19.23;10.90;;;;;;;6.85;73.99;97484.66;4861793;29;20133;-90
2020/12/03 18:44:38;;;;;;;15.52;10.48;;;;;;;6.84;74.00;97481.19;4863180;29;20093;-91
2020/12/03 18:47:04;;;;;;;14.38;10.05;;;;;;;6.83;73.76;97474.31;4861380;29;20499;-90
2020/12/03 18:49:31;;;;;;;14.73;10.05;;;;;;;6.83;73.66;97479.53;4862208;29;20473;-91
2020/12/03 18:51:57;;;;;;;16.75;10.48;;;;;;;6.82;73.81;97462.19;4861479;29;20077;-90
2020/12/03 18:54:24;;;;;;;14.77;10.50;;;;;;;6.83;73.68;97458.63;4861523;29;20396;-91
2020/12/03 18:56:51;;;;;;;14.75;10.38;;;;;;;6.83;73.79;97456.00;4862304;29;20084;-90
2020/12/03 18:59:17;;;;;;;15.40;10.15;;;;;;;6.83;73.84;97450.78;4861369;29;20145;-91
2020/12/03 19:01:47;;;;;;;14.63;9.90;;;;;;;6.80;72.54;97451.00;4861520;29;20061;-91
2020/12/03 19:04:13;;;;;;;16.83;11.13;;;;;;;6.83;73.26;97453.38;4860797;29;20050;-91
2020/12/03 19:06:40;;;;;;;16.17;10.23;;;;;;;6.81;73.47;97446.63;4861128;29;20054;-90
2020/12/03 19:09:07;;;;;;;14.70;10.20;;;;;;;6.79;73.21;97441.50;4860965;29;20049;-90
2020/12/03 19:11:39;;;;;;;17.20;11.05;;;;;;;6.78;73.15;97445.06;4862300;29;20427;-91
2020/12/03 19:14:07;;;;;;;16.30;10.75;;;;;;;6.76;73.07;97439.97;4862182;29;20065;-91
2020/12/03 19:16:36;;;;;;;16.05;10.70;;;;;;;6.73;73.31;97442.81;4862135;29;20050;-91
2020/12/03 19:19:03;;;;;;;16.10;10.95;;;;;;;6.71;73.26;97442.13;4860847;29;20057;-91
2020/12/03 19:21:29;;;;;;;15.85;10.85;;;;;;;6.70;73.54;97432.63;4861247;29;20057;-91
2020/12/03 19:23:55;;;;;;;18.80;10.75;;;;;;;6.71;73.67;97438.66;4861522;29;20065;-88
2020/12/03 19:26:21;;;;;;;15.95;10.57;;;;;;;6.70;73.37;97444.84;4860476;29;20045;-90
2020/12/03 19:28:48;;;;;;;15.80;10.23;;;;;;;6.71;73.83;97434.28;4860928;29;20061;-90
2020/12/03 19:31:14;;;;;;;16.02;10.32;;;;;;;6.71;73.65;97439.50;4860796;29;20053;-90
2020/12/03 19:33:40;;;;;;;14.90;10.25;;;;;;;6.70;73.59;97437.84;4861646;29;20049;-90
2020/12/03 19:36:07;;;;;;;16.15;10.60;;;;;;;6.71;73.80;97429.03;4862172;29;20053;-90
2020/12/03 19:38:33;;;;;;;16.20;10.65;;;;;;;6.71;73.81;97429.03;4860425;29;20057;-90
2020/12/03 19:41:11;;;;;;;17.00;11.38;;;;;;;6.72;73.83;97422.00;4860607;29;20089;-90
2020/12/03 19:43:39;;;;;;;15.65;10.65;;;;;;;6.73;73.71;97410.63;4873799;29;20057;-91
2020/12/03 19:46:20;;;;;;;16.10;10.43;;;;;;;6.71;72.54;97402.06;4878292;29;20059;-91
2020/12/03 19:48:49;;;;;;;17.40;11.82;;;;;;;6.73;72.78;97403.59;4878325;29;20112;-91
2020/12/03 19:51:16;;;;;;;14.40;10.43;;;;;;;6.76;73.58;97405.13;4878521;29;20057;-91
2020/12/03 19:53:42;;;;;;;17.60;10.93;;;;;;;6.74;73.22;97402.66;4878132;29;20057;-91
2020/12/03 19:56:11;;;;;;;19.80;11.73;;;;;;;6.75;73.14;97393.00;4878497;29;20053;-90
2020/12/03 19:58:37;;;;;;;17.70;10.95;;;;;;;6.75;73.40;97387.78;4878452;29;20494;-92
2020/12/03 20:01:03;;;;;;;15.80;10.95;;;;;;;6.74;73.25;97384.38;4878275;29;20049;-91
2020/12/03 20:03:30;;;;;;;16.33;10.65;;;;;;;6.73;73.22;97377.44;4877885;29;20057;-91
2020/12/03 20:05:57;;;;;;;15.55;11.15;;;;;;;6.72;73.37;97381.03;4878235;29;20109;-91
2020/12/03 20:08:27;;;;;;;15.52;10.73;;;;;;;6.71;72.52;97376.75;4878542;29;20053;-90
2020/12/03 20:10:53;;;;;;;16.67;11.27;;;;;;;6.71;73.19;97375.91;4878218;29;20143;-91
2020/12/03 20:13:19;;;;;;;14.77;10.10;;;;;;;6.71;73.00;97375.91;4877742;29;20083;-91
2020/12/03 20:15:45;;;;;;;18.02;11.80;;;;;;;6.71;73.05;97378.53;4878329;29;20053;-91
2020/12/03 20:18:12;;;;;;;14.38;10.85;;;;;;;6.68;73.02;97374.38;4879300;29;20053;-91
2020/12/03 20:20:41;;;;;;;16.15;10.70;;;;;;;6.68;72.69;97373.53;4880088;29;20402;-91
2020/12/03 20:23:07;;;;;;;15.32;11.13;;;;;;;6.68;73.09;97370.91;4882671;29;20143;-91
2020/12/03 20:25:33;;;;;;;19.70;12.43;;;;;;;6.66;72.97;97368.44;4882043;29;20056;-91
2020/12/03 20:28:05;;;;;;;17.48;11.27;;;;;;;6.65;73.30;97361.53;4881700;29;20144;-93
2020/12/03 20:30:31;;;;;;;15.80;11.10;;;;;;;6.65;73.36;97358.94;4882186;29;20077;-91
2020/12/03 20:32:58;;;;;;;17.38;11.40;;;;;;;6.63;73.18;97359.06;4880896;29;20092;-91
2020/12/03 20:35:24;;;;;;;16.85;11.57;;;;;;;6.62;73.07;97349.53;4883174;29;20057;-91
2020/12/03 20:37:51;;;;;;;15.18;10.32;;;;;;;6.62;73.12;97348.75;4881876;29;20452;-91
2020/12/03 20:40:17;;;;;;;17.00;11.75;;;;;;;6.61;72.84;97341.81;4881762;29;20144;-91
2020/12/03 20:42:43;;;;;;;16.73;11.48;;;;;;;6.61;73.10;97344.44;4881472;29;20061;-91
2020/12/03 20:45:09;;;;;;;15.98;11.13;;;;;;;6.59;72.81;97347.19;4882622;29;20053;-91
2020/12/03 20:47:41;;;;;;;16.85;10.73;;;;;;;6.58;72.56;97342.91;4881173;29;20451;-91
2020/12/03 20:54:25;;;;;;;15.63;10.40;;;;;;;6.55;71.66;97343.16;4882063;29;20558;-93
2020/12/03 20:57:57;;;;;;;13.52;9.50;;;;;;;6.52;71.35;97335.56;4855144;29;20049;-91
2020/12/03 21:01:02;;;;;;;15.32;9.85;;;;;;;6.53;72.73;97331.19;4881285;29;20144;-91
2020/12/03 21:11:40;;;;;;;15.15;9.75;;;;;;;6.46;71.62;97317.75;4882162;29;20165;-91
2020/12/03 21:22:19;;;;;;;12.93;9.35;;;;;;;6.37;70.97;97298.41;4824185;29;20057;-91
2020/12/03 21:25:39;;;;;;;;;;;;;;;;;;;;;
2020/12/03 22:27:21;;;;;;;12.02;7.82;;;;;;;6.21;73.12;97207.38;4825855;29;20127;-91
2020/12/03 22:29:50;;;;;;;15.68;9.20;;;;;;;6.20;73.17;97201.31;4824940;29;20062;-90
2020/12/03 22:33:21;;;;;;;12.80;8.30;;;;;;;6.18;71.54;97210.22;4824396;29;20140;-90
2020/12/03 22:36:39;;;;;;;10.30;7.78;;;;;;;6.21;72.25;97189.09;4756623;30;20051;-90
2020/12/03 22:39:23;;;;;;;12.18;8.27;;;;;;;6.20;72.16;97193.47;4741938;30;20067;-90
2020/12/03 22:42:21;;;;;;;;;;;;;;;;;;;;;
2020/12/03 22:45:48;;;;;;;10.73;7.68;;;;;;;6.19;71.56;97181.38;4787413;30;20050;-90
2020/12/03 22:48:38;;;;;;;13.15;7.70;;;;;;;6.23;72.95;97179.34;4774262;30;20718;-90
2020/12/03 22:51:05;;;;;;;10.48;7.10;;;;;;;6.21;73.09;97171.63;4787214;29;20150;-90
2020/12/03 22:53:36;;;;;;;11.65;7.70;;;;;;;6.20;73.11;97164.75;4771515;30;20433;-90
2020/12/03 22:56:03;;;;;;;13.15;8.20;;;;;;;6.20;72.94;97169.16;4778026;29;20103;-90
2020/12/03 22:58:32;;;;;;;9.77;7.00;;;;;;;6.17;72.31;97148.50;4809201;29;20058;-90
2020/12/03 23:01:07;;;;;;;10.48;7.72;;;;;;;6.19;72.74;97149.19;4824366;29;20051;-90
2020/12/03 23:03:34;;;;;;;11.50;7.65;;;;;;;6.18;72.50;97139.69;4823531;29;20069;-90
2020/12/03 23:06:01;;;;;;;14.27;8.38;;;;;;;6.16;72.73;97144.22;4824236;29;20050;-90
2020/12/03 23:08:30;;;;;;;11.98;8.35;;;;;;;6.14;72.70;97146.97;4824099;29;20066;-90
2020/12/03 23:11:09;;;;;;;13.57;8.18;;;;;;;6.11;71.14;97140.22;4824186;29;20077;-90
2020/12/03 23:14:13;;;;;;;12.48;7.40;;;;;;;6.12;72.21;97134.03;4823802;29;20058;-90
2020/12/03 23:16:40;;;;;;;11.90;7.55;;;;;;;6.08;72.52;97130.00;4824111;29;20054;-90
2020/12/03 23:19:45;;;;;;;11.30;8.13;;;;;;;6.02;70.83;97129.63;4824101;29;20062;-89
2020/12/03 23:22:15;;;;;;;11.35;7.43;;;;;;;6.03;71.74;97118.22;4823381;29;20097;-90
2020/12/03 23:25:14;;;;;;;13.20;8.18;;;;;;;5.99;71.84;97104.59;4823876;29;20058;-90
2020/12/03 23:30:58;;;;;;;12.57;7.95;;;;;;;5.91;71.00;97086.13;4823187;29;20547;-88
2020/12/03 23:33:35;;;;;;;11.68;7.63;;;;;;;5.89;71.25;97088.00;4824641;29;20137;-87
2020/12/03 23:40:25;;;;;;;14.52;8.13;;;;;;;5.82;71.47;97079.84;4697736;30;20137;-86
2020/12/03 23:54:09;;;;;;;12.82;8.27;;;;;;;5.73;72.41;97042.28;4645991;30;20124;-88
